Terminal Aerodrome Forecast
Issued by NWS

Home | Current Version | Previous Version | Text Only | Print | Product List | Glossary On
Versions: 1 2 3 4 5 6 7 8 9 10 11 12 13 14 15 16 17
000
FTUS46 KSEW 192300
TAFBFI
TAF
KBFI 192320Z 2000/2024 19012G20KT P6SM -SHRA BKN040 OVC060
      TEMPO 2000/2003 3SM -SHRA BR BKN015
     FM200600 16008KT P6SM VCSH BKN040 BKN060
     FM201200 16006KT P6SM BKN040
     FM202000 20007KT P6SM SCT040 BKN070=

USA.gov is the U.S. government's official web portal to all federal, state and local government web resources and services.